Time;durP1;ratioP1;P1;durP2;ratioP2;P2;SDS_P1;SDS_P2;PMS_P1;PMS_P2;Temp;Humidity;BMP_temperature;BMP_pressure;BME280_temperature;BME280_humidity;BME280_pressure;Samples;Min_cycle;Max_cycle;Signal;HPM_P1;HPM_P2
2022/02/13 00:01:46;;;;;;;8.38;4.35;;;11.50;56.60;;;;;;4997566;28;20139;-78
2022/02/13 00:04:13;;;;;;;9.73;4.65;;;11.50;56.70;;;;;;5015352;28;20033;-78
2022/02/13 00:06:38;;;;;;;9.20;5.30;;;11.40;56.70;;;;;;4997594;28;20364;-80
2022/02/13 00:09:04;;;;;;;9.32;4.55;;;11.40;56.80;;;;;;5014970;28;20037;-78
2022/02/13 00:11:30;;;;;;;11.32;4.68;;;11.40;56.80;;;;;;5015076;28;20548;-78
2022/02/13 00:13:55;;;;;;;7.88;4.03;;;11.40;56.60;;;;;;5015325;28;20340;-81
2022/02/13 00:16:21;;;;;;;10.10;4.00;;;11.40;56.70;;;;;;5015198;28;20025;-77
2022/02/13 00:18:47;;;;;;;8.70;4.30;;;11.30;56.90;;;;;;5014951;28;20021;-79
2022/02/13 00:21:12;;;;;;;11.25;4.60;;;11.30;56.90;;;;;;5014932;28;20386;-82
2022/02/13 00:23:38;;;;;;;8.50;4.50;;;11.30;56.90;;;;;;5014962;28;20089;-79
2022/02/13 00:26:05;;;;;;;9.77;4.07;;;11.30;57.00;;;;;;5014784;28;20430;-76
2022/02/13 00:28:32;;;;;;;9.40;3.47;;;11.30;57.10;;;;;;5014700;28;20029;-78
2022/02/13 00:30:58;;;;;;;12.65;4.55;;;11.20;56.80;;;;;;5014680;28;20061;-75
2022/02/13 00:33:24;;;;;;;9.63;3.88;;;11.20;57.10;;;;;;5014793;28;20128;-76
2022/02/13 00:35:49;;;;;;;11.48;3.80;;;11.20;56.90;;;;;;4997178;28;20557;-75
2022/02/13 00:38:16;;;;;;;11.00;3.88;;;11.20;57.00;;;;;;5014689;28;20422;-75
2022/02/13 00:40:42;;;;;;;9.98;4.10;;;11.10;57.00;;;;;;5014591;28;20065;-75
2022/02/13 00:43:09;;;;;;;10.07;4.47;;;11.20;57.30;;;;;;5014702;28;20022;-79
2022/02/13 00:45:35;;;;;;;8.07;3.55;;;11.20;57.20;;;;;;5014655;28;20029;-73
2022/02/13 00:48:01;;;;;;;7.30;3.78;;;11.20;57.10;;;;;;5014755;28;20387;-77
2022/02/13 00:50:27;;;;;;;7.80;4.20;;;11.20;57.20;;;;;;5014142;28;20081;-76
2022/02/13 00:52:52;;;;;;;7.47;3.65;;;11.20;57.40;;;;;;5014108;28;20029;-75
2022/02/13 00:55:18;;;;;;;9.35;3.83;;;11.10;57.00;;;;;;5014028;28;20045;-77
2022/02/13 00:57:44;;;;;;;10.80;4.20;;;11.10;57.20;;;;;;5014286;28;20096;-75
2022/02/13 01:00:10;;;;;;;8.98;3.95;;;11.10;57.20;;;;;;5014424;28;20052;-73
2022/02/13 01:02:36;;;;;;;8.05;3.53;;;11.00;57.60;;;;;;4996743;28;20018;-78
2022/02/13 01:05:02;;;;;;;10.93;3.78;;;11.00;57.40;;;;;;5014265;28;20045;-75
2022/02/13 01:07:29;;;;;;;8.98;4.10;;;10.90;57.30;;;;;;5013946;28;20501;-77
2022/02/13 01:09:55;;;;;;;10.85;4.13;;;10.90;57.60;;;;;;5014184;28;20497;-76
2022/02/13 01:12:20;;;;;;;10.10;3.85;;;11.00;57.60;;;;;;5013987;28;20021;-73
2022/02/13 01:14:46;;;;;;;9.82;4.22;;;11.00;57.70;;;;;;5014153;28;20088;-79
2022/02/13 01:17:12;;;;;;;8.18;4.00;;;10.90;57.70;;;;;;5014075;28;20044;-75
2022/02/13 01:19:38;;;;;;;7.70;3.70;;;11.00;57.80;;;;;;5013945;28;20026;-76
2022/02/13 01:22:07;;;;;;;10.93;4.15;;;10.90;57.70;;;;;;5013835;28;20018;-74
2022/02/13 01:24:34;;;;;;;10.77;4.07;;;10.90;58.10;;;;;;4996665;28;20509;-76
2022/02/13 01:26:59;;;;;;;10.13;3.42;;;10.90;57.80;;;;;;5013763;28;20041;-79
2022/02/13 01:29:25;;;;;;;9.18;3.88;;;11.00;58.00;;;;;;5014012;28;20037;-77
2022/02/13 01:31:51;;;;;;;11.75;4.40;;;11.00;57.90;;;;;;4996163;28;20029;-83
2022/02/13 01:34:20;;;;;;;8.07;3.67;;;11.00;58.00;;;;;;5013771;28;20034;-81
2022/02/13 01:36:46;;;;;;;9.82;4.35;;;11.00;58.40;;;;;;4995977;28;20022;-82
2022/02/13 01:39:12;;;;;;;11.80;4.05;;;11.00;58.20;;;;;;5013554;28;20026;-76
2022/02/13 01:41:38;;;;;;;8.13;4.05;;;11.00;58.40;;;;;;4995917;28;20133;-80
2022/02/13 01:44:05;;;;;;;12.48;4.68;;;11.00;58.00;;;;;;5013679;28;20030;-80
2022/02/13 01:46:31;;;;;;;11.27;4.82;;;10.90;58.10;;;;;;5013821;28;20029;-80
2022/02/13 01:49:01;;;;;;;11.05;4.10;;;11.00;58.50;;;;;;5013487;28;20022;-80
2022/02/13 01:51:27;;;;;;;7.38;3.72;;;11.00;59.00;;;;;;5013452;28;20033;-77
2022/02/13 01:53:52;;;;;;;7.80;3.92;;;11.00;58.50;;;;;;5013834;28;20026;-79
2022/02/13 01:56:18;;;;;;;10.30;4.32;;;11.00;58.40;;;;;;5013426;28;20451;-77
2022/02/13 01:58:44;;;;;;;9.55;4.05;;;11.00;58.50;;;;;;5013294;28;20014;-76
2022/02/13 02:01:11;;;;;;;9.30;4.13;;;10.90;58.30;;;;;;5013487;28;20071;-79
2022/02/13 02:03:38;;;;;;;11.75;4.22;;;10.90;58.40;;;;;;5013255;28;20014;-81
2022/02/13 02:06:04;;;;;;;9.40;4.07;;;10.80;58.40;;;;;;5014261;28;20029;-80
2022/02/13 02:08:30;;;;;;;9.23;4.13;;;10.80;58.60;;;;;;4996693;28;20181;-77
2022/02/13 02:10:55;;;;;;;10.10;4.90;;;10.80;58.90;;;;;;5014543;28;20026;-76
2022/02/13 02:13:22;;;;;;;9.30;3.90;;;10.80;58.90;;;;;;5015392;28;20034;-75
2022/02/13 02:15:48;;;;;;;10.55;4.13;;;10.80;59.00;;;;;;5016344;28;20038;-75
2022/02/13 02:18:13;;;;;;;11.75;4.63;;;10.80;59.20;;;;;;5014386;28;20049;-75
2022/02/13 02:20:40;;;;;;;8.18;4.35;;;10.80;59.00;;;;;;5015054;28;20160;-74
2022/02/13 02:23:07;;;;;;;10.60;4.32;;;10.80;59.30;;;;;;5013821;28;20129;-76
2022/02/13 02:25:33;;;;;;;9.98;4.55;;;10.70;59.30;;;;;;5013709;28;20021;-74
2022/02/13 02:27:59;;;;;;;10.00;4.78;;;10.70;59.30;;;;;;5013175;28;20025;-77
2022/02/13 02:30:25;;;;;;;8.50;3.75;;;10.70;59.70;;;;;;5013221;28;20076;-75
2022/02/13 02:32:51;;;;;;;10.40;4.32;;;10.80;59.70;;;;;;5013034;28;20038;-76
2022/02/13 02:35:17;;;;;;;8.60;4.40;;;10.70;59.30;;;;;;5012780;28;20538;-77
2022/02/13 02:37:43;;;;;;;11.18;4.38;;;10.70;59.50;;;;;;5013041;28;20022;-76
2022/02/13 02:40:09;;;;;;;8.77;4.05;;;10.60;59.70;;;;;;5013363;28;20030;-78
2022/02/13 02:42:35;;;;;;;8.40;4.40;;;10.60;60.50;;;;;;5013105;28;20019;-75
2022/02/13 02:45:01;;;;;;;8.77;4.03;;;10.70;60.00;;;;;;5013022;28;20037;-79
2022/02/13 02:47:26;;;;;;;8.18;4.10;;;10.70;59.80;;;;;;4994621;28;20034;-79
2022/02/13 02:49:52;;;;;;;8.90;3.97;;;10.60;59.80;;;;;;5013090;28;20025;-79
2022/02/13 02:52:19;;;;;;;10.15;4.53;;;10.50;60.00;;;;;;5013775;28;20065;-75
2022/02/13 02:54:45;;;;;;;7.15;3.70;;;10.50;60.20;;;;;;5013810;28;20066;-78
2022/02/13 02:57:12;;;;;;;13.40;4.28;;;10.50;60.30;;;;;;5013384;28;20177;-74
2022/02/13 02:59:37;;;;;;;8.93;4.13;;;10.50;60.20;;;;;;5013019;28;20098;-74
2022/02/13 03:02:04;;;;;;;8.63;3.97;;;10.40;60.40;;;;;;5014241;28;20400;-74
2022/02/13 03:04:30;;;;;;;10.05;4.20;;;10.40;60.80;;;;;;5014748;28;20029;-74
2022/02/13 03:06:55;;;;;;;13.60;3.80;;;10.40;60.70;;;;;;5015933;28;20018;-73
2022/02/13 03:09:22;;;;;;;10.07;4.00;;;10.40;60.70;;;;;;4999691;28;20116;-75
2022/02/13 03:11:48;;;;;;;8.13;3.80;;;10.40;60.90;;;;;;5027370;28;20054;-74
2022/02/13 03:14:14;;;;;;;8.18;3.92;;;10.30;60.70;;;;;;5031018;28;20041;-75
2022/02/13 03:16:40;;;;;;;6.38;3.38;;;10.20;61.00;;;;;;5025717;28;20044;-80
2022/02/13 03:19:05;;;;;;;11.50;3.80;;;10.30;60.90;;;;;;4998855;28;20383;-77
2022/02/13 03:21:31;;;;;;;8.27;3.70;;;10.20;61.00;;;;;;5016723;28;20384;-80
2022/02/13 03:23:57;;;;;;;10.60;3.92;;;10.20;60.90;;;;;;5016693;28;20053;-81
2022/02/13 03:26:24;;;;;;;7.85;3.83;;;10.20;60.90;;;;;;5017051;28;20052;-82
2022/02/13 03:28:51;;;;;;;8.13;3.40;;;10.20;60.90;;;;;;5016566;28;20121;-79
2022/02/13 03:31:16;;;;;;;8.40;3.58;;;10.20;60.90;;;;;;4998694;28;20037;-75
2022/02/13 03:33:42;;;;;;;9.32;3.60;;;10.20;60.90;;;;;;5016370;28;20088;-78
2022/02/13 03:36:09;;;;;;;8.93;3.60;;;10.30;60.80;;;;;;4998417;28;20069;-76
2022/02/13 03:38:35;;;;;;;8.80;3.67;;;10.30;60.80;;;;;;5016152;28;20068;-78
2022/02/13 03:41:00;;;;;;;9.77;3.85;;;10.30;60.40;;;;;;4998208;28;20085;-74
2022/02/13 03:43:26;;;;;;;5.40;3.00;;;10.30;60.50;;;;;;5015967;28;20022;-74
2022/02/13 03:45:52;;;;;;;6.68;3.10;;;10.30;60.40;;;;;;5015799;28;20030;-73
2022/02/13 03:48:17;;;;;;;7.95;3.10;;;10.40;60.20;;;;;;5015768;28;20037;-75
2022/02/13 03:50:43;;;;;;;8.60;3.63;;;10.40;60.10;;;;;;5015797;28;20107;-75
2022/02/13 03:53:09;;;;;;;9.30;3.60;;;10.40;60.40;;;;;;5015447;28;20024;-76
2022/02/13 03:55:35;;;;;;;8.50;3.35;;;10.30;60.10;;;;;;5015567;28;20034;-74
2022/02/13 03:58:01;;;;;;;8.85;3.17;;;10.40;60.40;;;;;;5015703;28;20026;-73
2022/02/13 04:00:29;;;;;;;7.25;3.15;;;10.40;60.60;;;;;;5015772;28;20033;-76
2022/02/13 04:02:56;;;;;;;8.02;3.05;;;10.40;60.40;;;;;;4983269;28;20109;-77
2022/02/13 04:05:23;;;;;;;15.48;4.15;;;10.30;60.30;;;;;;5017682;28;20053;-77
2022/02/13 04:07:49;;;;;;;7.88;3.33;;;10.30;60.20;;;;;;5017366;28;20056;-77
2022/02/13 04:10:15;;;;;;;7.50;2.80;;;10.40;60.30;;;;;;5016736;28;20034;-80
2022/02/13 04:12:42;;;;;;;7.38;3.13;;;10.40;60.10;;;;;;5015489;28;20143;-80
2022/02/13 04:15:09;;;;;;;8.10;3.40;;;10.50;60.50;;;;;;5015755;28;20125;-77
2022/02/13 04:17:35;;;;;;;11.18;3.30;;;10.50;59.70;;;;;;5015568;28;20018;-79
2022/02/13 04:20:01;;;;;;;8.07;3.35;;;10.50;59.60;;;;;;4997574;28;20084;-75
2022/02/13 04:22:28;;;;;;;8.10;3.50;;;10.40;59.50;;;;;;5015058;28;20375;-73
2022/02/13 04:24:54;;;;;;;8.13;2.90;;;10.40;60.10;;;;;;5014877;28;20048;-80
2022/02/13 04:27:20;;;;;;;9.40;4.32;;;10.40;59.80;;;;;;4997705;28;20029;-75
2022/02/13 04:29:46;;;;;;;8.98;3.40;;;10.40;59.90;;;;;;5015079;28;20076;-74
2022/02/13 04:32:11;;;;;;;7.70;3.08;;;10.40;59.90;;;;;;5015130;28;20115;-78
2022/02/13 04:34:37;;;;;;;7.80;3.15;;;10.50;60.00;;;;;;5015008;28;20085;-78
2022/02/13 04:37:03;;;;;;;7.65;3.58;;;10.50;59.90;;;;;;5014755;28;20026;-75
2022/02/13 04:39:29;;;;;;;6.75;3.17;;;10.50;59.70;;;;;;5015057;28;20052;-73
2022/02/13 04:41:55;;;;;;;10.65;3.47;;;10.50;59.90;;;;;;5015432;28;20395;-74
2022/02/13 04:44:20;;;;;;;6.28;3.28;;;10.50;60.00;;;;;;5015041;28;20044;-75
2022/02/13 04:46:47;;;;;;;7.28;3.30;;;10.50;59.90;;;;;;5014648;28;20025;-74
2022/02/13 04:49:13;;;;;;;6.50;3.35;;;10.50;60.00;;;;;;5014477;28;20018;-73
2022/02/13 04:51:39;;;;;;;9.32;3.08;;;10.50;60.00;;;;;;5014460;28;20084;-78
2022/02/13 04:54:06;;;;;;;7.95;3.45;;;10.50;59.80;;;;;;5014185;28;20056;-77
2022/02/13 04:56:31;;;;;;;7.53;2.90;;;10.50;59.60;;;;;;5014432;28;20340;-76
2022/02/13 04:58:58;;;;;;;8.10;2.88;;;10.50;59.90;;;;;;5014225;28;20076;-75
2022/02/13 05:01:24;;;;;;;8.20;3.35;;;10.30;60.50;;;;;;5017545;28;20096;-76
2022/02/13 05:03:50;;;;;;;7.00;3.20;;;10.30;60.30;;;;;;5018333;28;20026;-77
2022/02/13 05:06:16;;;;;;;9.05;3.63;;;10.20;60.30;;;;;;5017227;28;20102;-75
2022/02/13 05:08:43;;;;;;;7.45;3.15;;;10.20;60.70;;;;;;5014230;28;20092;-76
2022/02/13 05:11:09;;;;;;;9.07;3.40;;;10.10;60.90;;;;;;5014349;28;20034;-79
2022/02/13 05:13:35;;;;;;;10.02;3.65;;;10.10;60.90;;;;;;5014044;28;20022;-78
2022/02/13 05:16:01;;;;;;;10.40;3.58;;;10.10;61.20;;;;;;5013927;28;20065;-78
2022/02/13 05:18:27;;;;;;;8.85;3.05;;;10.10;60.90;;;;;;5013822;28;20026;-79
2022/02/13 05:20:53;;;;;;;6.55;2.95;;;10.10;61.10;;;;;;5014222;28;20041;-75
2022/02/13 05:23:18;;;;;;;6.85;2.75;;;10.10;61.20;;;;;;5013908;28;20466;-76
2022/02/13 05:25:44;;;;;;;6.38;2.80;;;10.00;61.10;;;;;;5013966;28;20029;-75
2022/02/13 05:28:10;;;;;;;6.80;2.97;;;10.00;61.20;;;;;;5013783;28;20125;-74
2022/02/13 05:30:35;;;;;;;7.22;2.90;;;10.00;61.50;;;;;;5014150;28;20026;-79
2022/02/13 05:33:01;;;;;;;7.40;3.20;;;10.00;61.50;;;;;;5014224;28;20022;-76
2022/02/13 05:35:27;;;;;;;13.93;3.25;;;10.00;61.50;;;;;;4997207;28;20073;-78
2022/02/13 05:37:54;;;;;;;9.57;3.35;;;10.10;61.80;;;;;;4997479;28;20084;-76
2022/02/13 05:40:20;;;;;;;9.05;3.40;;;10.10;61.80;;;;;;5013763;28;20050;-75
2022/02/13 05:42:46;;;;;;;6.90;2.90;;;10.10;61.60;;;;;;4996199;28;20045;-75
2022/02/13 05:45:16;;;;;;;10.07;3.65;;;10.10;61.50;;;;;;5013785;28;20097;-77
2022/02/13 05:47:41;;;;;;;9.40;3.45;;;10.10;61.70;;;;;;5012832;28;20042;-76
2022/02/13 05:50:08;;;;;;;10.00;3.33;;;10.00;61.40;;;;;;5013713;28;20032;-77
2022/02/13 05:52:34;;;;;;;5.88;2.72;;;9.90;62.70;;;;;;4996210;28;20479;-77
2022/02/13 05:54:59;;;;;;;7.05;3.10;;;10.00;62.10;;;;;;5013593;28;20044;-76
2022/02/13 05:57:25;;;;;;;10.15;3.28;;;10.00;61.90;;;;;;5013556;28;20052;-80
2022/02/13 05:59:54;;;;;;;8.13;3.30;;;10.00;61.80;;;;;;5013424;28;20091;-82
2022/02/13 06:02:19;;;;;;;9.32;3.35;;;10.00;61.90;;;;;;5014187;28;20440;-81
2022/02/13 06:04:45;;;;;;;8.82;3.00;;;10.10;62.00;;;;;;4996323;28;20034;-80
2022/02/13 06:07:11;;;;;;;7.15;3.30;;;10.00;62.00;;;;;;5015872;28;20031;-77
2022/02/13 06:09:36;;;;;;;5.88;3.00;;;10.00;61.80;;;;;;5018601;28;20033;-78
2022/02/13 06:12:02;;;;;;;7.20;2.97;;;10.00;62.00;;;;;;5014871;28;20030;-77
2022/02/13 06:14:28;;;;;;;7.63;3.22;;;10.00;62.00;;;;;;5013844;28;20022;-79
2022/02/13 06:16:55;;;;;;;9.52;3.25;;;10.00;61.90;;;;;;5013673;28;20037;-77
2022/02/13 06:19:21;;;;;;;8.25;2.95;;;10.00;62.20;;;;;;4996315;28;20037;-80
2022/02/13 06:21:47;;;;;;;8.93;3.30;;;10.00;61.80;;;;;;5013476;28;20479;-82
2022/02/13 06:24:12;;;;;;;6.30;2.88;;;10.10;62.00;;;;;;5013518;28;20014;-80
2022/02/13 06:26:39;;;;;;;11.15;3.28;;;10.10;61.90;;;;;;5014123;28;20026;-82
2022/02/13 06:29:06;;;;;;;10.60;3.53;;;10.10;61.90;;;;;;5013310;28;20482;-81
2022/02/13 06:31:32;;;;;;;8.65;3.20;;;10.10;61.80;;;;;;5013305;28;20487;-82
2022/02/13 06:33:58;;;;;;;7.22;3.28;;;10.10;61.60;;;;;;5013394;28;20026;-82
2022/02/13 06:36:23;;;;;;;7.28;3.00;;;10.10;62.00;;;;;;5013430;28;20034;-76
2022/02/13 06:38:49;;;;;;;6.57;3.45;;;10.10;61.70;;;;;;5013233;28;20470;-75
2022/02/13 06:41:15;;;;;;;8.88;3.33;;;10.10;61.70;;;;;;5012592;28;20133;-75
2022/02/13 06:43:40;;;;;;;7.82;3.47;;;10.10;61.70;;;;;;5012820;28;20497;-77
2022/02/13 06:46:09;;;;;;;9.55;3.75;;;10.10;61.70;;;;;;4995531;28;20018;-74
2022/02/13 06:48:35;;;;;;;8.02;3.45;;;10.10;61.80;;;;;;5012618;28;20030;-75
2022/02/13 06:51:01;;;;;;;7.82;4.18;;;10.20;61.90;;;;;;5016350;28;20117;-74
2022/02/13 06:53:27;;;;;;;8.00;3.97;;;10.20;61.80;;;;;;5016590;28;20026;-75
2022/02/13 06:55:53;;;;;;;8.15;3.70;;;10.20;61.80;;;;;;5016594;28;20056;-74
2022/02/13 06:58:19;;;;;;;6.68;3.38;;;10.20;61.70;;;;;;5016271;28;20033;-73
2022/02/13 07:00:45;;;;;;;7.70;3.40;;;10.20;61.70;;;;;;4998812;28;20026;-72
2022/02/13 07:03:11;;;;;;;6.75;3.42;;;10.30;61.90;;;;;;5016688;28;20418;-74
2022/02/13 07:05:37;;;;;;;7.68;3.50;;;10.30;61.90;;;;;;5016354;28;20096;-76
2022/02/13 07:08:03;;;;;;;10.30;3.80;;;10.40;61.80;;;;;;5016293;28;20518;-75
2022/02/13 07:10:29;;;;;;;7.38;3.70;;;10.40;61.50;;;;;;5017636;28;20108;-75
2022/02/13 07:12:54;;;;;;;6.65;3.53;;;10.50;61.50;;;;;;5017672;28;20058;-76
2022/02/13 07:15:20;;;;;;;8.93;3.63;;;10.40;61.20;;;;;;5016800;28;20033;-75
2022/02/13 07:17:47;;;;;;;7.88;3.35;;;10.50;61.50;;;;;;5016439;28;20040;-74
2022/02/13 07:20:13;;;;;;;6.78;3.35;;;10.50;61.20;;;;;;5016280;28;20100;-73
2022/02/13 07:22:39;;;;;;;9.00;3.78;;;10.60;60.80;;;;;;5016259;28;20052;-76
2022/02/13 07:25:08;;;;;;;6.97;3.67;;;10.60;60.80;;;;;;5016490;28;20025;-75
2022/02/13 07:27:36;;;;;;;7.75;3.60;;;10.70;61.00;;;;;;5017521;28;20022;-72
2022/02/13 07:30:06;;;;;;;7.20;3.90;;;10.70;60.40;;;;;;5020684;28;20033;-73
2022/02/13 07:32:33;;;;;;;8.25;3.70;;;10.90;60.70;;;;;;5020232;28;20028;-73
2022/02/13 07:34:58;;;;;;;9.82;4.00;;;10.90;60.60;;;;;;5017598;28;20513;-74
2022/02/13 07:37:24;;;;;;;10.90;4.13;;;10.90;60.30;;;;;;5016138;28;20034;-76
2022/02/13 07:39:50;;;;;;;9.15;4.20;;;10.90;60.10;;;;;;5016328;28;20018;-73
2022/02/13 07:42:18;;;;;;;7.63;3.72;;;10.90;60.40;;;;;;4998217;28;20038;-74
2022/02/13 07:44:44;;;;;;;9.63;4.05;;;11.00;60.50;;;;;;5015922;28;20104;-77
2022/02/13 07:47:12;;;;;;;8.65;3.80;;;11.00;60.30;;;;;;5016228;28;20022;-81
2022/02/13 07:49:38;;;;;;;6.90;4.13;;;11.00;60.80;;;;;;5015711;28;20053;-80
2022/02/13 07:52:04;;;;;;;10.38;5.25;;;11.10;60.40;;;;;;5015670;28;20136;-80
2022/02/13 07:54:30;;;;;;;9.43;5.22;;;11.10;60.30;;;;;;5015848;28;20042;-74
2022/02/13 07:56:56;;;;;;;10.00;5.07;;;11.10;60.20;;;;;;5016000;28;20022;-75
2022/02/13 07:59:22;;;;;;;11.55;5.50;;;11.20;60.20;;;;;;4997839;28;20057;-74
2022/02/13 08:01:48;;;;;;;13.20;5.78;;;11.30;60.00;;;;;;5014982;28;20015;-75
2022/02/13 08:04:14;;;;;;;9.15;5.82;;;11.20;59.90;;;;;;4998141;28;20084;-75
2022/02/13 08:06:39;;;;;;;10.55;6.03;;;11.30;60.00;;;;;;5015320;28;20023;-74
2022/02/13 08:09:05;;;;;;;12.80;6.30;;;11.30;59.80;;;;;;5015164;28;20030;-73
2022/02/13 08:11:31;;;;;;;10.20;5.38;;;11.30;59.90;;;;;;5015329;28;20371;-75
2022/02/13 08:13:58;;;;;;;10.27;5.50;;;11.40;59.70;;;;;;5014995;28;20522;-75
2022/02/13 08:16:24;;;;;;;8.10;5.22;;;11.40;59.60;;;;;;5015035;28;20379;-75
2022/02/13 08:18:50;;;;;;;9.77;5.47;;;11.40;59.60;;;;;;5014844;28;20038;-74
2022/02/13 08:21:16;;;;;;;11.13;5.63;;;11.40;59.80;;;;;;5015338;28;20054;-80
2022/02/13 08:23:41;;;;;;;12.07;5.50;;;11.50;59.70;;;;;;5015138;28;20025;-79
2022/02/13 08:26:08;;;;;;;12.02;5.97;;;11.70;59.60;;;;;;5014675;28;20021;-75
2022/02/13 08:28:35;;;;;;;9.00;5.53;;;11.80;59.40;;;;;;5015048;28;20072;-75
2022/02/13 08:31:01;;;;;;;15.00;6.32;;;11.90;59.20;;;;;;4997549;28;20025;-75
2022/02/13 08:33:28;;;;;;;10.68;6.00;;;12.10;58.80;;;;;;5015647;28;20030;-78
2022/02/13 08:35:55;;;;;;;11.38;6.15;;;12.20;58.90;;;;;;5015657;28;20057;-78
2022/02/13 08:38:23;;;;;;;10.70;6.40;;;12.30;58.50;;;;;;4997079;28;20049;-75
2022/02/13 08:40:48;;;;;;;9.02;5.68;;;12.40;58.50;;;;;;4997034;28;20057;-75
2022/02/13 08:43:14;;;;;;;12.00;6.03;;;12.50;58.60;;;;;;5014721;28;20022;-81
2022/02/13 08:45:40;;;;;;;9.38;5.63;;;12.60;58.50;;;;;;5014539;28;20054;-76
2022/02/13 08:48:06;;;;;;;11.95;5.93;;;12.60;58.30;;;;;;5014406;28;20478;-77
2022/02/13 08:50:32;;;;;;;15.93;7.20;;;12.70;58.30;;;;;;4996792;28;20380;-78
2022/02/13 08:52:58;;;;;;;12.65;6.47;;;12.80;58.40;;;;;;5014587;28;20026;-78
2022/02/13 08:55:24;;;;;;;12.02;6.63;;;13.00;58.20;;;;;;5014495;28;20026;-76
2022/02/13 08:57:50;;;;;;;12.27;6.40;;;13.00;57.70;;;;;;5014290;28;20080;-75
2022/02/13 09:00:18;;;;;;;11.98;6.18;;;13.10;57.70;;;;;;5014118;28;20029;-76
2022/02/13 09:02:43;;;;;;;11.07;6.65;;;13.20;57.70;;;;;;5014386;28;20077;-77
2022/02/13 09:05:09;;;;;;;12.05;6.20;;;13.20;57.60;;;;;;5014213;28;20026;-74
2022/02/13 09:07:40;;;;;;;13.95;6.80;;;13.30;57.40;;;;;;5014192;28;20036;-79
2022/02/13 09:10:08;;;;;;;9.70;6.40;;;13.30;57.30;;;;;;5013961;28;20033;-75
2022/02/13 09:12:34;;;;;;;14.30;7.20;;;13.30;57.60;;;;;;5013324;28;20025;-80
2022/02/13 09:15:00;;;;;;;13.25;7.32;;;13.30;57.40;;;;;;5013925;28;20037;-81
2022/02/13 09:17:26;;;;;;;43.85;29.92;;;13.30;57.60;;;;;;5014116;28;20029;-79
2022/02/13 09:19:53;;;;;;;13.65;8.32;;;13.30;57.60;;;;;;4980188;28;20068;-82
2022/02/13 09:22:19;;;;;;;13.68;8.68;;;13.30;57.80;;;;;;5014200;28;20021;-76
2022/02/13 09:24:44;;;;;;;21.98;14.30;;;13.30;57.70;;;;;;5014151;28;20022;-76
2022/02/13 09:27:11;;;;;;;15.90;8.68;;;13.30;57.80;;;;;;5014319;28;20022;-81
2022/02/13 09:29:37;;;;;;;13.80;8.70;;;13.30;57.90;;;;;;5013963;28;20079;-77
2022/02/13 09:32:03;;;;;;;10.90;7.60;;;13.30;57.90;;;;;;5014116;28;20045;-79
2022/02/13 09:34:30;;;;;;;15.40;10.38;;;13.30;57.70;;;;;;5013627;28;20026;-81
2022/02/13 09:36:56;;;;;;;14.55;9.05;;;13.40;57.90;;;;;;5014018;28;20038;-80
2022/02/13 09:39:26;;;;;;;14.85;9.07;;;13.50;57.80;;;;;;5017309;23;20066;-72
2022/02/13 09:41:52;;;;;;;14.85;8.85;;;13.60;57.70;;;;;;4976865;28;20030;-74
2022/02/13 09:44:18;;;;;;;16.08;9.52;;;13.70;57.70;;;;;;4994261;28;20027;-72
2022/02/13 09:46:45;;;;;;;14.57;9.15;;;13.80;57.70;;;;;;4993850;28;20105;-75
2022/02/13 09:49:11;;;;;;;13.10;8.65;;;13.90;57.40;;;;;;4993454;28;20026;-69
2022/02/13 09:51:37;;;;;;;16.25;8.68;;;14.00;57.30;;;;;;4993455;28;20049;-73
2022/02/13 09:54:05;;;;;;;13.90;8.73;;;14.10;57.30;;;;;;4993562;28;20427;-70
2022/02/13 09:56:31;;;;;;;14.60;8.75;;;14.10;57.20;;;;;;4993490;28;20097;-71
2022/02/13 09:58:57;;;;;;;13.80;9.23;;;14.20;57.10;;;;;;4993392;28;20033;-73
2022/02/13 10:01:44;;;;;;;15.88;8.60;;;14.20;57.00;;;;;;4993447;28;20113;-70
2022/02/13 10:04:12;;;;;;;16.42;9.45;;;14.30;56.80;;;;;;4993511;28;20402;-72
2022/02/13 10:06:38;;;;;;;15.43;9.40;;;14.30;57.20;;;;;;4993515;28;20066;-71
2022/02/13 10:09:07;;;;;;;15.40;9.63;;;14.40;57.00;;;;;;4993461;28;20113;-74
2022/02/13 10:11:37;;;;;;;15.20;9.45;;;14.40;57.00;;;;;;4993664;28;20463;-71
2022/02/13 10:14:12;;;;;;;15.13;9.77;;;14.50;56.80;;;;;;4993381;28;20031;-69
2022/02/13 10:16:46;;;;;;;16.27;9.80;;;14.60;56.30;;;;;;4993662;28;20046;-68
2022/02/13 10:19:16;;;;;;;13.65;9.25;;;14.70;56.50;;;;;;4993299;28;20022;-65
2022/02/13 10:21:49;;;;;;;18.20;9.90;;;14.70;56.20;;;;;;4993169;28;20105;-71
2022/02/13 10:24:31;;;;;;;14.63;9.23;;;14.70;55.70;;;;;;4978214;28;20019;-70
2022/02/13 10:26:57;;;;;;;19.33;10.75;;;14.80;55.90;;;;;;4997169;28;20543;-70
2022/02/13 10:29:28;;;;;;;14.88;9.63;;;14.90;56.10;;;;;;4997232;28;20054;-68
2022/02/13 10:32:17;;;;;;;15.45;9.93;;;14.90;55.50;;;;;;4979957;28;20110;-71
2022/02/13 10:35:05;;;;;;;13.13;9.05;;;15.10;55.40;;;;;;4997000;28;20030;-73
2022/02/13 10:37:54;;;;;;;13.43;8.82;;;15.20;55.20;;;;;;4984446;28;20046;-70
2022/02/13 10:40:38;;;;;;;14.82;10.07;;;15.30;54.10;;;;;;4997384;28;20112;-70
2022/02/13 10:43:05;;;;;;;;;;;15.30;54.00;;;;;;4997787;28;20112;-73
2022/02/13 10:45:33;;;;;;;14.13;8.95;;;15.30;53.30;;;;;;4997219;28;19910;-72
2022/02/13 10:48:04;;;;;;;12.27;9.38;;;15.50;54.10;;;;;;4996814;28;20408;-71
2022/02/13 10:50:35;;;;;;;11.52;8.52;;;15.60;54.40;;;;;;4996939;28;20022;-70
2022/02/13 10:53:03;;;;;;;13.63;9.25;;;15.70;53.60;;;;;;4996735;28;20034;-72
2022/02/13 10:55:30;;;;;;;13.73;9.38;;;15.80;53.30;;;;;;4996795;28;20550;-74
2022/02/13 10:57:57;;;;;;;12.65;8.52;;;15.80;52.90;;;;;;4996668;28;20025;-71
2022/02/13 11:00:23;;;;;;;13.25;9.25;;;15.90;53.20;;;;;;4996817;28;20039;-73
2022/02/13 11:02:50;;;;;;;22.85;13.50;;;15.90;53.00;;;;;;4996399;28;20056;-71
2022/02/13 11:05:18;;;;;;;14.20;9.60;;;16.00;52.80;;;;;;4996852;28;20074;-73
2022/02/13 11:07:49;;;;;;;13.25;9.50;;;16.10;53.10;;;;;;4996715;28;20019;-72
2022/02/13 11:10:23;;;;;;;13.80;9.43;;;16.10;53.10;;;;;;4996361;28;20027;-73
2022/02/13 11:12:53;;;;;;;15.85;10.70;;;16.10;53.50;;;;;;4978716;28;20110;-72
2022/02/13 11:15:21;;;;;;;13.88;9.50;;;16.10;52.60;;;;;;4996296;28;20030;-73
2022/02/13 11:17:49;;;;;;;16.70;10.60;;;16.20;52.80;;;;;;4996483;28;20621;-73
2022/02/13 11:20:17;;;;;;;16.75;8.90;;;16.30;52.50;;;;;;4996409;28;20172;-70
2022/02/13 11:22:47;;;;;;;13.75;9.65;;;16.30;52.20;;;;;;4996512;28;20037;-72
2022/02/13 11:25:13;;;;;;;13.52;8.63;;;16.30;52.20;;;;;;4996420;28;20126;-73
2022/02/13 11:27:59;;;;;;;11.60;8.40;;;16.30;52.30;;;;;;4996419;28;20081;-72
2022/02/13 11:30:44;;;;;;;11.18;7.38;;;16.60;53.10;;;;;;4996207;28;20041;-71
2022/02/13 11:33:12;;;;;;;11.80;7.25;;;16.70;52.60;;;;;;4996356;28;20459;-73
2022/02/13 11:36:11;;;;;;;13.13;6.93;;;16.80;52.20;;;;;;4995315;28;20121;-69
2022/02/13 11:38:40;;;;;;;10.95;6.28;;;17.00;51.80;;;;;;4953699;28;20050;-73
2022/02/13 11:41:07;;;;;;;13.75;6.45;;;17.10;51.60;;;;;;4996289;28;20451;-72
2022/02/13 11:43:45;;;;;;;13.73;5.95;;;17.20;51.90;;;;;;4995929;28;20026;-66
2022/02/13 11:46:30;;;;;;;10.55;5.18;;;17.30;51.40;;;;;;4996041;28;20411;-72
2022/02/13 11:48:58;;;;;;;9.25;5.65;;;17.50;51.20;;;;;;4994445;28;20034;-73
2022/02/13 11:51:45;;;;;;;8.10;5.32;;;17.70;51.40;;;;;;4978293;28;20030;-74
2022/02/13 11:54:40;;;;;;;7.78;4.88;;;17.80;49.60;;;;;;4996000;28;20476;-72
2022/02/13 11:57:16;;;;;;;10.15;5.13;;;17.80;49.20;;;;;;4995851;28;20030;-75
2022/02/13 12:00:00;;;;;;;8.80;4.60;;;17.90;50.70;;;;;;4995722;28;20023;-74
2022/02/13 12:02:31;;;;;;;8.63;5.05;;;17.80;49.20;;;;;;4995938;28;20109;-75
2022/02/13 12:05:06;;;;;;;9.30;4.90;;;17.70;50.80;;;;;;4995927;28;20030;-75
2022/02/13 12:07:38;;;;;;;9.13;4.82;;;17.80;49.40;;;;;;4995772;28;20484;-72
2022/02/13 12:10:12;;;;;;;10.65;4.47;;;17.80;49.10;;;;;;4995579;28;20038;-71
2022/02/13 12:12:41;;;;;;;8.05;5.22;;;17.90;50.50;;;;;;4995885;28;20084;-73
2022/02/13 12:15:07;;;;;;;7.00;4.30;;;17.90;50.40;;;;;;4977847;28;20048;-70
2022/02/13 12:17:34;;;;;;;11.70;4.55;;;17.80;50.30;;;;;;4995659;28;20490;-72
2022/02/13 12:20:12;;;;;;;8.23;4.70;;;17.70;50.30;;;;;;4995600;28;20019;-72
2022/02/13 12:22:39;;;;;;;8.90;4.97;;;17.70;48.70;;;;;;4995679;28;20014;-72
2022/02/13 12:25:07;;;;;;;8.30;5.38;;;17.80;50.40;;;;;;4995817;28;20053;-73
2022/02/13 12:27:34;;;;;;;10.32;5.32;;;17.80;49.70;;;;;;4977838;28;20031;-70
2022/02/13 12:30:02;;;;;;;8.95;5.25;;;17.80;50.30;;;;;;4995271;28;20034;-69
2022/02/13 12:32:33;;;;;;;9.73;5.40;;;17.80;50.40;;;;;;4995187;28;20076;-72
2022/02/13 12:35:08;;;;;;;9.23;5.40;;;17.80;50.30;;;;;;4994950;28;20034;-74
2022/02/13 12:37:44;;;;;;;9.02;5.15;;;17.90;48.30;;;;;;4995308;28;20082;-69
2022/02/13 12:40:13;;;;;;;8.90;4.70;;;18.00;48.30;;;;;;4994840;28;20046;-70
2022/02/13 12:42:41;;;;;;;8.20;4.85;;;18.10;48.10;;;;;;4977580;28;20092;-68
2022/02/13 12:45:09;;;;;;;9.45;5.10;;;18.10;49.70;;;;;;4995173;28;20026;-72